sensor_id;sensor_type;location;lat;lon;timestamp;P1;durP1;ratioP1;P2;durP2;ratioP2
12519;SDS011;6325;49.540;8.364;2024-03-22T00:00:17;8.10;;;7.40;;
12519;SDS011;6325;49.540;8.364;2024-03-22T00:02:43;7.90;;;7.20;;
12519;SDS011;6325;49.540;8.364;2024-03-22T00:05:09;8.50;;;7.70;;
12519;SDS011;6325;49.540;8.364;2024-03-22T00:07:36;12.18;;;10.65;;
12519;SDS011;6325;49.540;8.364;2024-03-22T00:10:03;16.20;;;12.05;;
12519;SDS011;6325;49.540;8.364;2024-03-22T00:12:31;17.77;;;13.55;;
12519;SDS011;6325;49.540;8.364;2024-03-22T00:14:57;14.63;;;11.53;;
12519;SDS011;6325;49.540;8.364;2024-03-22T00:17:25;11.77;;;9.65;;
12519;SDS011;6325;49.540;8.364;2024-03-22T00:19:50;10.32;;;8.63;;
12519;SDS011;6325;49.540;8.364;2024-03-22T00:22:17;8.52;;;7.70;;
12519;SDS011;6325;49.540;8.364;2024-03-22T00:24:43;7.23;;;6.60;;
12519;SDS011;6325;49.540;8.364;2024-03-22T00:27:09;7.37;;;6.77;;
12519;SDS011;6325;49.540;8.364;2024-03-22T00:29:36;7.38;;;6.72;;
12519;SDS011;6325;49.540;8.364;2024-03-22T00:32:03;6.82;;;6.28;;
12519;SDS011;6325;49.540;8.364;2024-03-22T00:34:31;7.15;;;6.55;;
12519;SDS011;6325;49.540;8.364;2024-03-22T00:36:58;7.40;;;6.72;;
12519;SDS011;6325;49.540;8.364;2024-03-22T00:39:24;7.50;;;6.83;;
12519;SDS011;6325;49.540;8.364;2024-03-22T00:41:51;6.87;;;6.27;;
12519;SDS011;6325;49.540;8.364;2024-03-22T00:44:19;7.25;;;6.65;;
12519;SDS011;6325;49.540;8.364;2024-03-22T00:46:46;7.55;;;6.85;;
12519;SDS011;6325;49.540;8.364;2024-03-22T00:49:12;6.93;;;6.32;;
12519;SDS011;6325;49.540;8.364;2024-03-22T00:51:40;7.00;;;6.40;;
12519;SDS011;6325;49.540;8.364;2024-03-22T00:54:08;7.43;;;6.82;;
12519;SDS011;6325;49.540;8.364;2024-03-22T00:56:34;7.40;;;6.70;;
12519;SDS011;6325;49.540;8.364;2024-03-22T00:59:00;7.28;;;6.57;;
12519;SDS011;6325;49.540;8.364;2024-03-22T01:01:26;7.00;;;6.40;;
12519;SDS011;6325;49.540;8.364;2024-03-22T01:03:53;7.10;;;6.50;;
12519;SDS011;6325;49.540;8.364;2024-03-22T01:06:19;7.25;;;6.65;;
12519;SDS011;6325;49.540;8.364;2024-03-22T01:08:51;7.63;;;6.93;;
12519;SDS011;6325;49.540;8.364;2024-03-22T01:11:17;7.22;;;6.63;;
12519;SDS011;6325;49.540;8.364;2024-03-22T01:13:43;7.78;;;7.07;;
12519;SDS011;6325;49.540;8.364;2024-03-22T01:16:09;8.07;;;7.30;;
12519;SDS011;6325;49.540;8.364;2024-03-22T01:18:36;7.47;;;6.88;;
12519;SDS011;6325;49.540;8.364;2024-03-22T01:21:02;6.90;;;6.30;;
12519;SDS011;6325;49.540;8.364;2024-03-22T01:23:30;7.65;;;7.00;;
12519;SDS011;6325;49.540;8.364;2024-03-22T01:25:57;7.87;;;7.20;;
12519;SDS011;6325;49.540;8.364;2024-03-22T01:28:24;8.20;;;7.43;;
12519;SDS011;6325;49.540;8.364;2024-03-22T01:30:49;8.13;;;7.43;;
12519;SDS011;6325;49.540;8.364;2024-03-22T01:33:16;7.78;;;7.07;;
12519;SDS011;6325;49.540;8.364;2024-03-22T01:35:42;7.80;;;7.10;;
12519;SDS011;6325;49.540;8.364;2024-03-22T01:38:10;7.90;;;7.20;;
12519;SDS011;6325;49.540;8.364;2024-03-22T01:40:37;8.23;;;7.53;;
12519;SDS011;6325;49.540;8.364;2024-03-22T01:43:05;7.88;;;7.18;;
12519;SDS011;6325;49.540;8.364;2024-03-22T01:45:32;8.15;;;7.45;;
12519;SDS011;6325;49.540;8.364;2024-03-22T01:47:59;7.88;;;7.18;;
12519;SDS011;6325;49.540;8.364;2024-03-22T01:50:26;7.82;;;7.13;;
12519;SDS011;6325;49.540;8.364;2024-03-22T01:52:53;7.40;;;6.75;;
12519;SDS011;6325;49.540;8.364;2024-03-22T01:55:19;7.40;;;6.80;;
12519;SDS011;6325;49.540;8.364;2024-03-22T01:57:46;7.32;;;6.72;;
12519;SDS011;6325;49.540;8.364;2024-03-22T02:00:15;7.47;;;6.82;;
12519;SDS011;6325;49.540;8.364;2024-03-22T02:02:42;7.00;;;6.40;;
12519;SDS011;6325;49.540;8.364;2024-03-22T02:05:11;7.17;;;6.57;;
12519;SDS011;6325;49.540;8.364;2024-03-22T02:07:39;8.05;;;7.32;;
12519;SDS011;6325;49.540;8.364;2024-03-22T02:10:05;7.47;;;6.85;;
12519;SDS011;6325;49.540;8.364;2024-03-22T02:12:35;8.20;;;7.40;;
12519;SDS011;6325;49.540;8.364;2024-03-22T02:15:01;7.93;;;7.20;;
12519;SDS011;6325;49.540;8.364;2024-03-22T02:17:31;8.55;;;7.70;;
12519;SDS011;6325;49.540;8.364;2024-03-22T02:19:57;7.97;;;7.27;;
12519;SDS011;6325;49.540;8.364;2024-03-22T02:22:25;7.85;;;7.10;;
12519;SDS011;6325;49.540;8.364;2024-03-22T02:24:52;7.10;;;6.45;;
12519;SDS011;6325;49.540;8.364;2024-03-22T02:27:19;7.57;;;6.88;;
12519;SDS011;6325;49.540;8.364;2024-03-22T02:29:45;7.47;;;6.82;;
12519;SDS011;6325;49.540;8.364;2024-03-22T02:32:12;7.68;;;6.97;;
12519;SDS011;6325;49.540;8.364;2024-03-22T02:34:38;7.63;;;7.03;;
12519;SDS011;6325;49.540;8.364;2024-03-22T02:37:05;7.70;;;7.00;;
12519;SDS011;6325;49.540;8.364;2024-03-22T02:39:31;8.07;;;7.27;;
12519;SDS011;6325;49.540;8.364;2024-03-22T02:41:59;7.70;;;7.00;;
12519;SDS011;6325;49.540;8.364;2024-03-22T02:44:24;7.35;;;6.65;;
12519;SDS011;6325;49.540;8.364;2024-03-22T02:46:51;7.90;;;7.20;;
12519;SDS011;6325;49.540;8.364;2024-03-22T02:49:17;7.67;;;6.97;;
12519;SDS011;6325;49.540;8.364;2024-03-22T02:51:44;7.40;;;6.80;;
12519;SDS011;6325;49.540;8.364;2024-03-22T02:54:09;7.55;;;6.90;;
12519;SDS011;6325;49.540;8.364;2024-03-22T02:56:36;7.10;;;6.50;;
12519;SDS011;6325;49.540;8.364;2024-03-22T02:59:03;7.38;;;6.78;;
12519;SDS011;6325;49.540;8.364;2024-03-22T03:01:30;7.77;;;7.07;;
12519;SDS011;6325;49.540;8.364;2024-03-22T03:03:57;6.70;;;6.20;;
12519;SDS011;6325;49.540;8.364;2024-03-22T03:06:24;7.43;;;6.75;;
12519;SDS011;6325;49.540;8.364;2024-03-22T03:08:52;7.07;;;6.47;;
12519;SDS011;6325;49.540;8.364;2024-03-22T03:11:20;6.63;;;6.13;;
12519;SDS011;6325;49.540;8.364;2024-03-22T03:13:46;7.72;;;7.03;;
12519;SDS011;6325;49.540;8.364;2024-03-22T03:16:14;6.88;;;6.28;;
12519;SDS011;6325;49.540;8.364;2024-03-22T03:18:40;6.15;;;5.55;;
12519;SDS011;6325;49.540;8.364;2024-03-22T03:21:07;7.88;;;5.57;;
12519;SDS011;6325;49.540;8.364;2024-03-22T03:23:33;5.82;;;5.32;;
12519;SDS011;6325;49.540;8.364;2024-03-22T03:26:00;6.18;;;5.60;;
12519;SDS011;6325;49.540;8.364;2024-03-22T03:28:26;6.03;;;5.47;;
12519;SDS011;6325;49.540;8.364;2024-03-22T03:30:52;5.50;;;5.05;;
12519;SDS011;6325;49.540;8.364;2024-03-22T03:33:20;5.95;;;5.45;;
12519;SDS011;6325;49.540;8.364;2024-03-22T03:35:46;5.90;;;5.35;;
12519;SDS011;6325;49.540;8.364;2024-03-22T03:38:12;5.97;;;5.47;;
12519;SDS011;6325;49.540;8.364;2024-03-22T03:40:39;5.70;;;5.20;;
12519;SDS011;6325;49.540;8.364;2024-03-22T03:43:05;5.80;;;5.30;;
12519;SDS011;6325;49.540;8.364;2024-03-22T03:45:32;5.22;;;4.75;;
12519;SDS011;6325;49.540;8.364;2024-03-22T03:47:57;5.50;;;5.00;;
12519;SDS011;6325;49.540;8.364;2024-03-22T03:50:25;5.30;;;4.80;;
12519;SDS011;6325;49.540;8.364;2024-03-22T03:52:51;5.25;;;4.85;;
12519;SDS011;6325;49.540;8.364;2024-03-22T03:55:18;5.28;;;4.78;;
12519;SDS011;6325;49.540;8.364;2024-03-22T03:57:44;5.03;;;4.63;;
12519;SDS011;6325;49.540;8.364;2024-03-22T04:00:11;5.25;;;4.75;;
12519;SDS011;6325;49.540;8.364;2024-03-22T04:02:37;5.43;;;4.93;;
12519;SDS011;6325;49.540;8.364;2024-03-22T04:05:04;5.75;;;5.25;;
12519;SDS011;6325;49.540;8.364;2024-03-22T04:07:31;5.60;;;5.10;;
12519;SDS011;6325;49.540;8.364;2024-03-22T04:09:58;5.95;;;5.40;;
12519;SDS011;6325;49.540;8.364;2024-03-22T04:12:25;5.95;;;5.43;;
12519;SDS011;6325;49.540;8.364;2024-03-22T04:14:52;5.57;;;5.07;;
12519;SDS011;6325;49.540;8.364;2024-03-22T04:17:17;5.72;;;5.22;;
12519;SDS011;6325;49.540;8.364;2024-03-22T04:19:44;5.90;;;5.40;;
12519;SDS011;6325;49.540;8.364;2024-03-22T04:22:10;5.30;;;4.80;;
12519;SDS011;6325;49.540;8.364;2024-03-22T04:24:38;5.80;;;5.30;;
12519;SDS011;6325;49.540;8.364;2024-03-22T04:27:04;5.72;;;5.22;;
12519;SDS011;6325;49.540;8.364;2024-03-22T04:29:32;5.90;;;5.40;;
12519;SDS011;6325;49.540;8.364;2024-03-22T04:31:58;6.20;;;5.70;;
12519;SDS011;6325;49.540;8.364;2024-03-22T04:34:24;6.47;;;5.88;;
12519;SDS011;6325;49.540;8.364;2024-03-22T04:36:50;7.20;;;6.60;;
12519;SDS011;6325;49.540;8.364;2024-03-22T04:39:18;8.38;;;7.57;;
12519;SDS011;6325;49.540;8.364;2024-03-22T04:41:47;7.90;;;7.20;;
12519;SDS011;6325;49.540;8.364;2024-03-22T04:44:13;7.63;;;6.93;;
12519;SDS011;6325;49.540;8.364;2024-03-22T04:46:40;6.97;;;6.38;;
12519;SDS011;6325;49.540;8.364;2024-03-22T04:49:06;7.00;;;6.40;;
12519;SDS011;6325;49.540;8.364;2024-03-22T04:51:33;6.68;;;6.18;;
12519;SDS011;6325;49.540;8.364;2024-03-22T04:54:00;7.38;;;6.78;;
12519;SDS011;6325;49.540;8.364;2024-03-22T04:56:25;7.30;;;6.60;;
12519;SDS011;6325;49.540;8.364;2024-03-22T04:58:54;7.10;;;6.50;;
12519;SDS011;6325;49.540;8.364;2024-03-22T05:01:20;6.68;;;6.07;;
12519;SDS011;6325;49.540;8.364;2024-03-22T05:03:48;6.38;;;5.88;;
12519;SDS011;6325;49.540;8.364;2024-03-22T05:06:14;6.33;;;5.73;;
12519;SDS011;6325;49.540;8.364;2024-03-22T05:08:41;6.23;;;5.73;;
12519;SDS011;6325;49.540;8.364;2024-03-22T05:11:07;6.28;;;5.68;;
12519;SDS011;6325;49.540;8.364;2024-03-22T05:13:33;5.93;;;5.43;;
12519;SDS011;6325;49.540;8.364;2024-03-22T05:16:01;6.33;;;5.73;;
12519;SDS011;6325;49.540;8.364;2024-03-22T05:18:27;6.13;;;5.63;;
12519;SDS011;6325;49.540;8.364;2024-03-22T05:20:54;6.38;;;5.78;;
12519;SDS011;6325;49.540;8.364;2024-03-22T05:23:20;6.35;;;5.78;;
12519;SDS011;6325;49.540;8.364;2024-03-22T05:25:46;6.18;;;5.57;;
12519;SDS011;6325;49.540;8.364;2024-03-22T05:28:13;6.20;;;5.60;;
12519;SDS011;6325;49.540;8.364;2024-03-22T05:30:39;5.88;;;5.38;;
12519;SDS011;6325;49.540;8.364;2024-03-22T05:33:07;5.88;;;5.38;;
12519;SDS011;6325;49.540;8.364;2024-03-22T05:35:33;6.50;;;5.90;;
12519;SDS011;6325;49.540;8.364;2024-03-22T05:37:59;5.97;;;5.47;;
12519;SDS011;6325;49.540;8.364;2024-03-22T05:40:26;6.25;;;5.70;;
12519;SDS011;6325;49.540;8.364;2024-03-22T05:42:52;6.38;;;5.70;;
12519;SDS011;6325;49.540;8.364;2024-03-22T05:45:18;6.40;;;5.80;;
12519;SDS011;6325;49.540;8.364;2024-03-22T05:47:45;5.90;;;5.40;;
12519;SDS011;6325;49.540;8.364;2024-03-22T05:50:13;5.90;;;5.30;;
12519;SDS011;6325;49.540;8.364;2024-03-22T05:52:40;5.82;;;5.32;;
12519;SDS011;6325;49.540;8.364;2024-03-22T05:55:06;6.28;;;5.68;;
12519;SDS011;6325;49.540;8.364;2024-03-22T05:57:33;6.15;;;5.55;;
12519;SDS011;6325;49.540;8.364;2024-03-22T05:59:58;6.53;;;5.93;;
12519;SDS011;6325;49.540;8.364;2024-03-22T06:02:25;6.05;;;5.55;;
12519;SDS011;6325;49.540;8.364;2024-03-22T06:04:51;5.60;;;5.10;;
12519;SDS011;6325;49.540;8.364;2024-03-22T06:07:21;5.82;;;5.32;;
12519;SDS011;6325;49.540;8.364;2024-03-22T06:09:47;6.03;;;5.53;;
12519;SDS011;6325;49.540;8.364;2024-03-22T06:12:14;6.00;;;5.50;;
12519;SDS011;6325;49.540;8.364;2024-03-22T06:14:40;5.93;;;5.43;;
12519;SDS011;6325;49.540;8.364;2024-03-22T06:17:07;5.65;;;5.18;;
12519;SDS011;6325;49.540;8.364;2024-03-22T06:19:34;5.95;;;5.45;;
12519;SDS011;6325;49.540;8.364;2024-03-22T06:22:01;6.15;;;5.57;;
12519;SDS011;6325;49.540;8.364;2024-03-22T06:24:29;6.35;;;5.75;;
12519;SDS011;6325;49.540;8.364;2024-03-22T06:26:55;6.35;;;5.85;;
12519;SDS011;6325;49.540;8.364;2024-03-22T06:29:21;6.15;;;5.65;;
12519;SDS011;6325;49.540;8.364;2024-03-22T06:31:48;6.38;;;5.78;;
12519;SDS011;6325;49.540;8.364;2024-03-22T06:34:15;6.43;;;5.82;;
12519;SDS011;6325;49.540;8.364;2024-03-22T06:36:42;6.47;;;5.97;;
12519;SDS011;6325;49.540;8.364;2024-03-22T06:39:08;6.30;;;5.80;;
12519;SDS011;6325;49.540;8.364;2024-03-22T06:41:36;6.57;;;5.97;;
12519;SDS011;6325;49.540;8.364;2024-03-22T06:44:02;6.53;;;5.95;;
12519;SDS011;6325;49.540;8.364;2024-03-22T06:46:29;6.22;;;5.63;;
12519;SDS011;6325;49.540;8.364;2024-03-22T06:48:55;6.32;;;5.72;;
12519;SDS011;6325;49.540;8.364;2024-03-22T06:51:23;6.07;;;5.47;;
12519;SDS011;6325;49.540;8.364;2024-03-22T06:53:49;6.28;;;5.78;;
12519;SDS011;6325;49.540;8.364;2024-03-22T06:56:16;6.63;;;6.03;;
12519;SDS011;6325;49.540;8.364;2024-03-22T06:58:44;6.00;;;5.50;;
12519;SDS011;6325;49.540;8.364;2024-03-22T07:01:12;5.90;;;5.40;;
12519;SDS011;6325;49.540;8.364;2024-03-22T07:03:38;6.57;;;5.97;;
12519;SDS011;6325;49.540;8.364;2024-03-22T07:06:05;6.28;;;5.68;;
12519;SDS011;6325;49.540;8.364;2024-03-22T07:08:32;5.28;;;4.88;;
12519;SDS011;6325;49.540;8.364;2024-03-22T07:10:59;6.05;;;5.55;;
12519;SDS011;6325;49.540;8.364;2024-03-22T07:13:25;6.10;;;5.60;;
12519;SDS011;6325;49.540;8.364;2024-03-22T07:15:53;5.38;;;4.97;;
12519;SDS011;6325;49.540;8.364;2024-03-22T07:18:19;5.10;;;4.70;;
12519;SDS011;6325;49.540;8.364;2024-03-22T07:20:46;5.33;;;4.83;;
12519;SDS011;6325;49.540;8.364;2024-03-22T07:23:13;5.28;;;4.88;;
12519;SDS011;6325;49.540;8.364;2024-03-22T07:25:39;5.57;;;5.07;;
12519;SDS011;6325;49.540;8.364;2024-03-22T07:28:07;5.30;;;4.90;;
12519;SDS011;6325;49.540;8.364;2024-03-22T07:30:34;5.40;;;4.90;;
12519;SDS011;6325;49.540;8.364;2024-03-22T07:33:02;5.43;;;4.95;;
12519;SDS011;6325;49.540;8.364;2024-03-22T07:35:29;5.22;;;4.82;;
12519;SDS011;6325;49.540;8.364;2024-03-22T07:37:56;5.10;;;4.70;;
12519;SDS011;6325;49.540;8.364;2024-03-22T07:40:23;4.88;;;4.47;;
12519;SDS011;6325;49.540;8.364;2024-03-22T07:42:49;4.90;;;4.50;;
12519;SDS011;6325;49.540;8.364;2024-03-22T07:45:15;4.90;;;4.50;;
12519;SDS011;6325;49.540;8.364;2024-03-22T07:47:41;4.83;;;4.43;;
12519;SDS011;6325;49.540;8.364;2024-03-22T07:50:10;5.30;;;4.90;;
12519;SDS011;6325;49.540;8.364;2024-03-22T07:52:36;5.78;;;5.28;;
12519;SDS011;6325;49.540;8.364;2024-03-22T07:55:03;5.40;;;5.00;;
12519;SDS011;6325;49.540;8.364;2024-03-22T07:57:29;5.03;;;4.63;;
12519;SDS011;6325;49.540;8.364;2024-03-22T07:59:56;5.13;;;4.72;;
12519;SDS011;6325;49.540;8.364;2024-03-22T08:02:22;5.07;;;4.68;;
12519;SDS011;6325;49.540;8.364;2024-03-22T08:04:49;5.10;;;4.70;;
12519;SDS011;6325;49.540;8.364;2024-03-22T08:07:16;5.40;;;4.93;;
12519;SDS011;6325;49.540;8.364;2024-03-22T08:09:43;5.28;;;4.88;;
12519;SDS011;6325;49.540;8.364;2024-03-22T08:12:08;5.03;;;4.63;;
12519;SDS011;6325;49.540;8.364;2024-03-22T08:14:35;4.85;;;4.45;;
12519;SDS011;6325;49.540;8.364;2024-03-22T08:17:01;4.82;;;4.35;;
12519;SDS011;6325;49.540;8.364;2024-03-22T08:19:28;5.20;;;4.80;;
12519;SDS011;6325;49.540;8.364;2024-03-22T08:21:54;5.53;;;5.03;;
12519;SDS011;6325;49.540;8.364;2024-03-22T08:24:23;5.25;;;4.82;;
12519;SDS011;6325;49.540;8.364;2024-03-22T08:26:49;5.28;;;4.88;;
12519;SDS011;6325;49.540;8.364;2024-03-22T08:29:16;5.43;;;5.00;;
12519;SDS011;6325;49.540;8.364;2024-03-22T08:31:42;5.72;;;5.20;;
12519;SDS011;6325;49.540;8.364;2024-03-22T08:34:09;6.03;;;5.45;;
12519;SDS011;6325;49.540;8.364;2024-03-22T08:36:35;5.82;;;5.32;;
12519;SDS011;6325;49.540;8.364;2024-03-22T08:39:01;6.00;;;5.50;;
12519;SDS011;6325;49.540;8.364;2024-03-22T08:41:29;5.30;;;4.90;;
12519;SDS011;6325;49.540;8.364;2024-03-22T08:43:55;5.68;;;5.18;;
12519;SDS011;6325;49.540;8.364;2024-03-22T08:46:22;5.80;;;5.30;;
12519;SDS011;6325;49.540;8.364;2024-03-22T08:48:51;5.70;;;5.30;;
12519;SDS011;6325;49.540;8.364;2024-03-22T08:51:18;5.70;;;5.25;;
12519;SDS011;6325;49.540;8.364;2024-03-22T08:53:44;5.72;;;5.32;;
12519;SDS011;6325;49.540;8.364;2024-03-22T08:56:11;5.60;;;5.20;;
12519;SDS011;6325;49.540;8.364;2024-03-22T08:58:38;5.60;;;5.20;;
12519;SDS011;6325;49.540;8.364;2024-03-22T09:01:05;6.10;;;5.60;;
12519;SDS011;6325;49.540;8.364;2024-03-22T09:03:31;6.07;;;5.47;;
12519;SDS011;6325;49.540;8.364;2024-03-22T09:05:58;6.10;;;5.60;;
12519;SDS011;6325;49.540;8.364;2024-03-22T09:08:23;5.78;;;5.28;;
12519;SDS011;6325;49.540;8.364;2024-03-22T09:10:51;5.72;;;5.32;;
12519;SDS011;6325;49.540;8.364;2024-03-22T09:13:16;5.55;;;5.15;;
12519;SDS011;6325;49.540;8.364;2024-03-22T09:15:45;5.88;;;5.43;;
12519;SDS011;6325;49.540;8.364;2024-03-22T09:18:10;6.00;;;5.50;;
12519;SDS011;6325;49.540;8.364;2024-03-22T09:20:37;5.97;;;5.40;;
12519;SDS011;6325;49.540;8.364;2024-03-22T09:23:03;6.00;;;5.50;;
12519;SDS011;6325;49.540;8.364;2024-03-22T09:25:30;6.10;;;5.60;;
12519;SDS011;6325;49.540;8.364;2024-03-22T09:27:56;5.75;;;5.25;;
12519;SDS011;6325;49.540;8.364;2024-03-22T09:30:22;6.03;;;5.45;;
12519;SDS011;6325;49.540;8.364;2024-03-22T09:32:51;5.65;;;5.25;;
12519;SDS011;6325;49.540;8.364;2024-03-22T09:35:17;5.72;;;5.22;;
12519;SDS011;6325;49.540;8.364;2024-03-22T09:37:43;6.20;;;5.63;;
12519;SDS011;6325;49.540;8.364;2024-03-22T09:40:10;5.50;;;5.00;;
12519;SDS011;6325;49.540;8.364;2024-03-22T09:42:37;5.85;;;5.35;;
12519;SDS011;6325;49.540;8.364;2024-03-22T09:45:04;5.53;;;5.03;;
12519;SDS011;6325;49.540;8.364;2024-03-22T09:47:35;5.65;;;5.15;;
12519;SDS011;6325;49.540;8.364;2024-03-22T09:50:03;5.80;;;5.30;;
12519;SDS011;6325;49.540;8.364;2024-03-22T09:52:33;5.60;;;5.10;;
12519;SDS011;6325;49.540;8.364;2024-03-22T09:54:59;4.97;;;4.57;;
12519;SDS011;6325;49.540;8.364;2024-03-22T09:57:28;4.78;;;4.38;;
12519;SDS011;6325;49.540;8.364;2024-03-22T09:59:56;4.47;;;4.18;;
12519;SDS011;6325;49.540;8.364;2024-03-22T10:02:23;4.47;;;4.18;;
12519;SDS011;6325;49.540;8.364;2024-03-22T10:04:50;4.68;;;4.28;;
12519;SDS011;6325;49.540;8.364;2024-03-22T10:07:18;4.10;;;3.80;;
12519;SDS011;6325;49.540;8.364;2024-03-22T10:09:44;4.00;;;3.70;;
12519;SDS011;6325;49.540;8.364;2024-03-22T10:12:11;4.13;;;3.83;;
12519;SDS011;6325;49.540;8.364;2024-03-22T10:14:38;4.00;;;3.70;;
12519;SDS011;6325;49.540;8.364;2024-03-22T10:17:07;3.90;;;3.60;;
12519;SDS011;6325;49.540;8.364;2024-03-22T10:19:34;4.17;;;3.87;;
12519;SDS011;6325;49.540;8.364;2024-03-22T10:22:00;3.50;;;3.30;;
12519;SDS011;6325;49.540;8.364;2024-03-22T10:24:29;3.33;;;3.05;;
12519;SDS011;6325;49.540;8.364;2024-03-22T10:26:55;3.60;;;3.10;;
12519;SDS011;6325;49.540;8.364;2024-03-22T10:29:22;3.10;;;2.90;;
12519;SDS011;6325;49.540;8.364;2024-03-22T10:31:49;3.25;;;2.95;;
12519;SDS011;6325;49.540;8.364;2024-03-22T10:34:17;2.60;;;2.47;;
12519;SDS011;6325;49.540;8.364;2024-03-22T10:36:44;2.65;;;2.47;;
12519;SDS011;6325;49.540;8.364;2024-03-22T10:39:12;2.80;;;2.60;;
12519;SDS011;6325;49.540;8.364;2024-03-22T10:41:45;2.97;;;2.72;;
12519;SDS011;6325;49.540;8.364;2024-03-22T10:44:12;3.17;;;2.97;;
12519;SDS011;6325;49.540;8.364;2024-03-22T10:46:39;2.70;;;2.60;;
12519;SDS011;6325;49.540;8.364;2024-03-22T10:49:10;3.17;;;2.97;;
12519;SDS011;6325;49.540;8.364;2024-03-22T10:51:40;2.80;;;2.60;;
12519;SDS011;6325;49.540;8.364;2024-03-22T10:54:09;2.83;;;2.63;;
12519;SDS011;6325;49.540;8.364;2024-03-22T10:56:39;2.70;;;2.50;;
12519;SDS011;6325;49.540;8.364;2024-03-22T10:59:08;3.00;;;2.80;;
12519;SDS011;6325;49.540;8.364;2024-03-22T11:01:34;2.63;;;2.42;;
12519;SDS011;6325;49.540;8.364;2024-03-22T11:04:03;2.60;;;2.40;;
12519;SDS011;6325;49.540;8.364;2024-03-22T11:06:30;2.75;;;2.55;;
12519;SDS011;6325;49.540;8.364;2024-03-22T11:08:58;2.42;;;2.28;;
12519;SDS011;6325;49.540;8.364;2024-03-22T11:11:27;2.22;;;2.13;;
12519;SDS011;6325;49.540;8.364;2024-03-22T11:13:53;2.50;;;2.30;;
12519;SDS011;6325;49.540;8.364;2024-03-22T11:16:22;2.40;;;2.22;;
12519;SDS011;6325;49.540;8.364;2024-03-22T11:18:48;2.00;;;1.90;;
12519;SDS011;6325;49.540;8.364;2024-03-22T11:21:15;2.30;;;2.20;;
12519;SDS011;6325;49.540;8.364;2024-03-22T11:23:41;2.10;;;2.00;;
12519;SDS011;6325;49.540;8.364;2024-03-22T11:26:11;2.97;;;2.72;;
12519;SDS011;6325;49.540;8.364;2024-03-22T11:28:37;2.63;;;2.42;;
12519;SDS011;6325;49.540;8.364;2024-03-22T11:31:04;2.55;;;2.25;;
12519;SDS011;6325;49.540;8.364;2024-03-22T11:33:32;2.40;;;2.30;;
12519;SDS011;6325;49.540;8.364;2024-03-22T11:35:58;2.70;;;2.50;;
12519;SDS011;6325;49.540;8.364;2024-03-22T11:38:25;2.45;;;2.35;;
12519;SDS011;6325;49.540;8.364;2024-03-22T11:40:52;2.60;;;2.40;;
12519;SDS011;6325;49.540;8.364;2024-03-22T11:43:21;2.35;;;2.22;;
12519;SDS011;6325;49.540;8.364;2024-03-22T11:45:47;2.45;;;2.25;;
12519;SDS011;6325;49.540;8.364;2024-03-22T11:48:14;2.35;;;2.10;;
12519;SDS011;6325;49.540;8.364;2024-03-22T11:50:41;2.17;;;1.97;;
12519;SDS011;6325;49.540;8.364;2024-03-22T11:53:08;2.78;;;2.58;;
12519;SDS011;6325;49.540;8.364;2024-03-22T11:55:35;2.38;;;2.17;;
12519;SDS011;6325;49.540;8.364;2024-03-22T11:58:05;2.33;;;2.22;;
12519;SDS011;6325;49.540;8.364;2024-03-22T12:00:33;2.50;;;2.40;;
12519;SDS011;6325;49.540;8.364;2024-03-22T12:03:00;2.50;;;2.30;;
12519;SDS011;6325;49.540;8.364;2024-03-22T12:05:29;2.65;;;2.45;;
12519;SDS011;6325;49.540;8.364;2024-03-22T12:07:57;2.50;;;2.30;;
12519;SDS011;6325;49.540;8.364;2024-03-22T12:10:23;2.40;;;2.30;;
12519;SDS011;6325;49.540;8.364;2024-03-22T12:12:50;2.00;;;1.90;;
12519;SDS011;6325;49.540;8.364;2024-03-22T12:15:16;2.00;;;1.90;;
12519;SDS011;6325;49.540;8.364;2024-03-22T12:17:42;2.20;;;2.10;;
12519;SDS011;6325;49.540;8.364;2024-03-22T12:20:08;2.50;;;2.30;;
12519;SDS011;6325;49.540;8.364;2024-03-22T12:22:35;2.40;;;2.20;;
12519;SDS011;6325;49.540;8.364;2024-03-22T12:25:03;2.00;;;1.90;;
12519;SDS011;6325;49.540;8.364;2024-03-22T12:27:30;2.40;;;2.28;;
12519;SDS011;6325;49.540;8.364;2024-03-22T12:29:56;2.13;;;2.03;;
12519;SDS011;6325;49.540;8.364;2024-03-22T12:32:23;2.47;;;2.30;;
12519;SDS011;6325;49.540;8.364;2024-03-22T12:34:50;2.30;;;2.08;;
12519;SDS011;6325;49.540;8.364;2024-03-22T12:37:17;2.13;;;2.03;;
12519;SDS011;6325;49.540;8.364;2024-03-22T12:39:42;2.25;;;2.15;;
12519;SDS011;6325;49.540;8.364;2024-03-22T12:42:11;2.53;;;2.33;;
12519;SDS011;6325;49.540;8.364;2024-03-22T12:44:37;2.10;;;2.00;;
12519;SDS011;6325;49.540;8.364;2024-03-22T12:47:04;2.25;;;2.05;;
12519;SDS011;6325;49.540;8.364;2024-03-22T12:49:30;2.20;;;2.10;;
12519;SDS011;6325;49.540;8.364;2024-03-22T12:51:57;1.90;;;1.80;;
12519;SDS011;6325;49.540;8.364;2024-03-22T12:54:22;2.10;;;2.00;;
12519;SDS011;6325;49.540;8.364;2024-03-22T12:56:51;2.50;;;2.30;;
12519;SDS011;6325;49.540;8.364;2024-03-22T12:59:18;2.50;;;2.30;;
12519;SDS011;6325;49.540;8.364;2024-03-22T13:01:45;2.75;;;2.53;;
12519;SDS011;6325;49.540;8.364;2024-03-22T13:04:12;2.75;;;2.55;;
12519;SDS011;6325;49.540;8.364;2024-03-22T13:06:38;2.13;;;1.93;;
12519;SDS011;6325;49.540;8.364;2024-03-22T13:09:04;2.30;;;2.20;;
12519;SDS011;6325;49.540;8.364;2024-03-22T13:11:31;2.47;;;2.27;;
12519;SDS011;6325;49.540;8.364;2024-03-22T13:13:58;2.28;;;2.08;;
12519;SDS011;6325;49.540;8.364;2024-03-22T13:16:25;4.55;;;3.80;;
12519;SDS011;6325;49.540;8.364;2024-03-22T13:18:52;4.82;;;3.70;;
12519;SDS011;6325;49.540;8.364;2024-03-22T13:21:18;3.75;;;3.30;;
12519;SDS011;6325;49.540;8.364;2024-03-22T13:23:45;2.67;;;2.47;;
12519;SDS011;6325;49.540;8.364;2024-03-22T13:26:11;2.33;;;2.13;;
12519;SDS011;6325;49.540;8.364;2024-03-22T13:28:37;4.60;;;3.72;;
12519;SDS011;6325;49.540;8.364;2024-03-22T13:31:03;3.10;;;2.80;;
12519;SDS011;6325;49.540;8.364;2024-03-22T13:33:33;2.50;;;2.30;;
12519;SDS011;6325;49.540;8.364;2024-03-22T13:35:59;2.67;;;2.47;;
12519;SDS011;6325;49.540;8.364;2024-03-22T13:38:27;2.40;;;2.20;;
12519;SDS011;6325;49.540;8.364;2024-03-22T13:40:53;2.35;;;2.20;;
12519;SDS011;6325;49.540;8.364;2024-03-22T13:43:20;2.20;;;2.10;;
12519;SDS011;6325;49.540;8.364;2024-03-22T13:45:47;2.38;;;2.20;;
12519;SDS011;6325;49.540;8.364;2024-03-22T13:48:18;2.63;;;2.42;;
12519;SDS011;6325;49.540;8.364;2024-03-22T13:50:50;2.58;;;2.38;;
12519;SDS011;6325;49.540;8.364;2024-03-22T13:53:17;2.33;;;2.13;;
12519;SDS011;6325;49.540;8.364;2024-03-22T13:55:43;2.78;;;2.58;;
12519;SDS011;6325;49.540;8.364;2024-03-22T13:58:11;1.98;;;1.88;;
12519;SDS011;6325;49.540;8.364;2024-03-22T14:00:37;2.10;;;2.00;;
12519;SDS011;6325;49.540;8.364;2024-03-22T14:03:04;2.95;;;2.60;;
12519;SDS011;6325;49.540;8.364;2024-03-22T14:05:30;2.50;;;2.40;;
12519;SDS011;6325;49.540;8.364;2024-03-22T14:07:59;2.35;;;2.17;;
12519;SDS011;6325;49.540;8.364;2024-03-22T14:10:25;2.10;;;1.93;;
12519;SDS011;6325;49.540;8.364;2024-03-22T14:12:52;2.63;;;2.42;;
12519;SDS011;6325;49.540;8.364;2024-03-22T14:15:19;2.38;;;2.20;;
12519;SDS011;6325;49.540;8.364;2024-03-22T14:17:45;1.92;;;1.83;;
12519;SDS011;6325;49.540;8.364;2024-03-22T14:20:13;2.05;;;1.90;;
12519;SDS011;6325;49.540;8.364;2024-03-22T14:22:39;2.20;;;2.10;;
12519;SDS011;6325;49.540;8.364;2024-03-22T14:25:08;2.30;;;2.10;;
12519;SDS011;6325;49.540;8.364;2024-03-22T14:27:35;2.45;;;2.25;;
12519;SDS011;6325;49.540;8.364;2024-03-22T14:30:02;2.80;;;2.60;;
12519;SDS011;6325;49.540;8.364;2024-03-22T14:32:31;3.28;;;2.97;;
12519;SDS011;6325;49.540;8.364;2024-03-22T14:34:57;2.90;;;2.70;;
12519;SDS011;6325;49.540;8.364;2024-03-22T14:37:23;3.03;;;2.83;;
12519;SDS011;6325;49.540;8.364;2024-03-22T14:39:50;3.85;;;3.35;;
12519;SDS011;6325;49.540;8.364;2024-03-22T14:42:17;3.07;;;2.87;;
12519;SDS011;6325;49.540;8.364;2024-03-22T14:44:44;3.60;;;3.30;;
12519;SDS011;6325;49.540;8.364;2024-03-22T14:47:09;3.73;;;3.43;;
12519;SDS011;6325;49.540;8.364;2024-03-22T14:49:36;2.90;;;2.70;;
12519;SDS011;6325;49.540;8.364;2024-03-22T14:52:02;4.93;;;3.10;;
12519;SDS011;6325;49.540;8.364;2024-03-22T14:54:29;3.45;;;2.90;;
12519;SDS011;6325;49.540;8.364;2024-03-22T14:56:55;3.60;;;3.30;;